Weather at Chippewa County International Airport

Public forecast

Using degrees Fahrenheit for public forecast. Weather courtesy of forecast.io.

Current aviation weather report (METAR) for Chippewa County International Airport

Report is more than 2 hours old.

Retrieved 2022/01/27 01:56 UTC (3 hours ago):

KCIU 270156Z AUTO 19013G20KT 6SM -SN OVC025 M10/M14 A2998 RMK AO2 SLP173 P0000 T11001139 FZRANO

Closest aviation forecast (TAF) to Chippewa County International Airport

Closest forecast is Sault Ste Marie Airport, 14.1 nm (26.2 km) N. Retrieved 2022-01-27 02:42 UTC (2 hours ago):

TAF TAF CYAM 270140Z 2702/2714 16008G18KT P6SM OVC030 TEMPO 2702/2704 2SM -SHSN OVC020 PROB30 2702/2704 1 1/2SM -SHSN FM270400 22015G30KT 1SM -SHSN VV012 TEMPO 2704/2712 5SM -SHSN OVC020 PROB30 2706/2710 1/4SM SHSN BLSN FM271200 22012G22KT 2SM -SN OVC020 TEMPO 2712/2714 6SM -SN OVC030 RMK NXT FCST BY 270800Z